createdAt,value
2019-05-25T00:00:50.745Z,0.00
2019-05-25T00:01:50.743Z,0.00
2019-05-25T00:02:50.743Z,0.00
2019-05-25T00:03:50.736Z,0.00
2019-05-25T00:04:50.732Z,0.00
2019-05-25T00:05:50.731Z,0.00
2019-05-25T00:06:50.751Z,0.00
2019-05-25T00:07:50.726Z,0.00
2019-05-25T00:08:50.729Z,0.00
2019-05-25T00:09:50.731Z,0.00
2019-05-25T00:10:50.718Z,0.00
2019-05-25T00:11:50.713Z,0.00
2019-05-25T00:12:50.713Z,0.00
2019-05-25T00:13:50.719Z,0.00
2019-05-25T00:14:50.706Z,0.00
2019-05-25T00:15:50.717Z,0.00
2019-05-25T00:16:50.699Z,0.00
2019-05-25T00:17:50.707Z,0.00
2019-05-25T00:18:50.695Z,0.00
2019-05-25T00:19:50.692Z,0.00
2019-05-25T00:20:50.688Z,0.00
2019-05-25T00:21:50.685Z,0.00
2019-05-25T00:22:50.682Z,0.00
2019-05-25T00:23:50.679Z,0.00
2019-05-25T00:24:50.676Z,0.00
2019-05-25T00:25:50.673Z,0.00
2019-05-25T00:26:50.679Z,0.00
2019-05-25T00:27:50.678Z,0.00
2019-05-25T00:28:50.664Z,0.00
2019-05-25T00:29:50.663Z,0.00
2019-05-25T00:30:50.662Z,0.00
2019-05-25T00:31:50.657Z,0.00
2019-05-25T00:32:50.662Z,0.00
2019-05-25T00:33:50.691Z,0.00
2019-05-25T00:34:50.648Z,0.00
2019-05-25T00:35:50.645Z,0.00
2019-05-25T00:36:50.642Z,0.00
2019-05-25T00:37:50.639Z,0.00
2019-05-25T00:38:50.642Z,0.00
2019-05-25T00:39:50.633Z,0.00
2019-05-25T00:40:50.629Z,0.00
2019-05-25T00:41:50.635Z,0.00
2019-05-25T00:42:50.624Z,0.00
2019-05-25T00:43:50.621Z,0.00
2019-05-25T00:44:50.616Z,0.00
2019-05-25T00:45:50.620Z,0.00
2019-05-25T00:46:50.612Z,0.00
2019-05-25T00:47:50.615Z,0.00
2019-05-25T00:48:50.606Z,0.00
2019-05-25T00:49:50.609Z,0.00
2019-05-25T00:50:50.601Z,0.00
2019-05-25T00:51:50.597Z,0.00
2019-05-25T00:52:50.595Z,0.00
2019-05-25T00:53:50.601Z,0.00
2019-05-25T00:54:50.588Z,0.00
2019-05-25T00:55:50.586Z,0.00
2019-05-25T00:56:50.585Z,0.00
2019-05-25T00:57:50.579Z,0.00
2019-05-25T00:58:50.577Z,0.00
2019-05-25T00:59:50.573Z,0.00
2019-05-25T01:00:50.570Z,0.00
2019-05-25T01:01:50.566Z,0.00
2019-05-25T01:02:50.567Z,0.00
2019-05-25T01:03:50.563Z,0.00
2019-05-25T01:04:50.558Z,0.00
2019-05-25T01:05:50.555Z,0.00
2019-05-25T01:06:50.554Z,0.00
2019-05-25T01:07:50.553Z,0.00
2019-05-25T01:08:50.544Z,0.00
2019-05-25T01:09:50.544Z,0.00
2019-05-25T01:10:50.540Z,0.00
2019-05-25T01:11:50.537Z,0.00
2019-05-25T01:12:50.538Z,0.00
2019-05-25T01:13:50.529Z,0.00
2019-05-25T01:14:50.528Z,0.00
2019-05-25T01:15:50.525Z,0.00
2019-05-25T01:16:50.525Z,0.00
2019-05-25T01:17:50.517Z,0.00
2019-05-25T01:18:50.516Z,0.00
2019-05-25T01:19:50.511Z,0.00
2019-05-25T01:20:50.509Z,0.00
2019-05-25T01:21:50.505Z,0.00
2019-05-25T01:22:50.505Z,0.00
2019-05-25T01:23:50.500Z,0.00
2019-05-25T01:24:50.498Z,0.00
2019-05-25T01:25:50.492Z,0.00
2019-05-25T01:26:50.490Z,0.00
2019-05-25T01:27:50.488Z,0.00
2019-05-25T01:28:50.484Z,0.00
2019-05-25T01:29:50.480Z,0.00
2019-05-25T01:30:50.478Z,0.00
2019-05-25T01:31:50.475Z,0.00
2019-05-25T01:32:50.470Z,0.00
2019-05-25T01:33:50.468Z,0.00
2019-05-25T01:34:50.464Z,0.00
2019-05-25T01:35:50.464Z,0.00
2019-05-25T01:36:50.459Z,0.00
2019-05-25T01:37:50.456Z,0.00
2019-05-25T01:38:50.452Z,0.00
2019-05-25T01:39:50.449Z,0.00
2019-05-25T01:40:50.446Z,0.00
2019-05-25T01:41:50.443Z,0.00
2019-05-25T01:42:50.440Z,0.00
2019-05-25T01:43:50.436Z,0.00
2019-05-25T01:44:50.432Z,0.00
2019-05-25T01:45:50.429Z,0.00
2019-05-25T01:46:50.432Z,0.00
2019-05-25T01:47:50.423Z,0.00
2019-05-25T01:48:50.420Z,0.00
2019-05-25T01:49:50.415Z,0.00
2019-05-25T01:50:50.414Z,0.00
2019-05-25T01:51:50.409Z,0.00
2019-05-25T01:52:50.406Z,0.00
2019-05-25T01:53:50.402Z,0.00
2019-05-25T01:54:59.498Z,0.00
2019-05-25T01:55:50.397Z,0.00
2019-05-25T01:56:50.400Z,0.00
2019-05-25T01:57:50.391Z,0.00
2019-05-25T01:58:50.386Z,0.00
2019-05-25T01:59:50.463Z,0.00
2019-05-25T02:00:54.218Z,0.00
2019-05-25T02:01:50.376Z,0.00
2019-05-25T02:02:51.384Z,0.00
2019-05-25T02:03:50.367Z,0.00
2019-05-25T02:04:50.366Z,0.00
2019-05-25T02:05:50.363Z,0.00
2019-05-25T02:06:50.360Z,0.00
2019-05-25T02:07:51.771Z,0.00
2019-05-25T02:08:50.353Z,0.00
2019-05-25T02:09:50.358Z,0.00
2019-05-25T02:10:50.345Z,0.00
2019-05-25T02:11:50.340Z,0.00
2019-05-25T02:12:50.337Z,0.00
2019-05-25T02:13:50.447Z,0.00
2019-05-25T02:14:50.331Z,0.00
2019-05-25T02:15:50.333Z,0.00
2019-05-25T02:16:50.324Z,0.00
2019-05-25T02:18:39.676Z,0.00
2019-05-25T02:19:39.672Z,0.00
2019-05-25T02:20:39.669Z,0.00
2019-05-25T02:21:39.674Z,0.00
2019-05-25T02:22:39.662Z,0.00
2019-05-25T02:23:39.658Z,0.00
2019-05-25T02:24:39.657Z,0.00
2019-05-25T02:25:39.657Z,0.00
2019-05-25T02:26:39.662Z,0.00
2019-05-25T02:27:39.644Z,0.00
2019-05-25T02:28:39.641Z,0.00
2019-05-25T02:29:39.637Z,0.00
2019-05-25T02:30:39.636Z,0.00
2019-05-25T02:31:39.629Z,0.00
2019-05-25T02:32:39.629Z,0.00
2019-05-25T02:33:39.630Z,0.00
2019-05-25T02:34:39.621Z,0.00
2019-05-25T02:35:39.619Z,0.00
2019-05-25T02:36:39.613Z,0.00
2019-05-25T02:37:39.628Z,0.00
2019-05-25T02:38:39.608Z,0.00
2019-05-25T02:39:39.603Z,0.00
2019-05-25T02:40:39.601Z,0.00
2019-05-25T02:41:39.596Z,0.00
2019-05-25T02:42:39.591Z,0.00
2019-05-25T02:43:39.588Z,0.00
2019-05-25T02:44:39.585Z,0.00
2019-05-25T02:45:39.584Z,0.00
2019-05-25T02:46:39.579Z,0.00
2019-05-25T02:47:39.575Z,0.00
2019-05-25T02:48:39.574Z,0.00
2019-05-25T02:49:39.568Z,0.00
2019-05-25T02:50:39.565Z,0.00
2019-05-25T02:51:39.561Z,4.00
2019-05-25T02:52:39.564Z,4.00
2019-05-25T02:53:39.575Z,4.00
2019-05-25T02:54:39.561Z,0.00
2019-05-25T02:55:39.550Z,0.00
2019-05-25T02:56:39.545Z,4.00
2019-05-25T02:57:39.542Z,4.00
2019-05-25T02:58:39.537Z,4.00
2019-05-25T02:59:39.535Z,4.00
2019-05-25T03:00:39.531Z,4.00
2019-05-25T03:01:39.529Z,4.00
2019-05-25T03:02:39.524Z,8.00
2019-05-25T03:03:39.521Z,4.00
2019-05-25T03:04:39.517Z,8.00
2019-05-25T03:05:39.550Z,4.00
2019-05-25T03:06:39.511Z,8.00
2019-05-25T03:07:39.510Z,12.00
2019-05-25T03:08:39.504Z,8.00
2019-05-25T03:09:39.502Z,12.00
2019-05-25T03:10:39.501Z,12.00
2019-05-25T03:11:39.495Z,12.00
2019-05-25T03:12:39.492Z,16.00
2019-05-25T03:13:39.489Z,20.00
2019-05-25T03:14:39.484Z,20.00
2019-05-25T03:15:39.480Z,24.00
2019-05-25T03:16:39.478Z,28.00
2019-05-25T03:17:39.491Z,28.00
2019-05-25T03:18:39.471Z,28.00
2019-05-25T03:19:39.467Z,32.00
2019-05-25T03:20:39.464Z,32.00
2019-05-25T03:21:39.461Z,40.00
2019-05-25T03:22:39.465Z,44.00
2019-05-25T03:23:39.454Z,44.00
2019-05-25T03:24:39.450Z,44.00
2019-05-25T03:25:49.082Z,48.00
2019-05-25T03:26:39.443Z,52.00
2019-05-25T03:27:39.439Z,56.00
2019-05-25T03:28:39.437Z,56.00
2019-05-25T03:29:39.436Z,64.00
2019-05-25T03:31:39.428Z,72.00
2019-05-25T03:32:39.425Z,76.00
2019-05-25T03:33:39.422Z,80.00
2019-05-25T03:34:39.418Z,84.00
2019-05-25T03:35:39.415Z,84.00
2019-05-25T03:36:39.415Z,92.00
2019-05-25T03:37:39.424Z,96.00
2019-05-25T03:38:39.404Z,104.00
2019-05-25T03:39:39.401Z,108.00
2019-05-25T03:40:39.401Z,108.00
2019-05-25T03:41:39.401Z,108.00
2019-05-25T03:42:39.390Z,116.00
2019-05-25T03:43:39.391Z,124.00
2019-05-25T03:44:39.385Z,124.00
2019-05-25T03:45:39.382Z,132.00
2019-05-25T03:46:39.378Z,140.00
2019-05-25T03:47:39.378Z,144.00
2019-05-25T03:48:39.374Z,148.00
2019-05-25T03:49:39.375Z,152.00
2019-05-25T03:50:39.370Z,160.00
2019-05-25T03:51:39.362Z,176.00
2019-05-25T03:52:39.363Z,188.00
2019-05-25T03:53:39.358Z,204.00
2019-05-25T03:54:39.353Z,208.00
2019-05-25T03:55:39.350Z,216.00
2019-05-25T03:56:39.347Z,224.00
2019-05-25T03:57:39.345Z,228.00
2019-05-25T03:58:39.341Z,236.00
2019-05-25T03:59:39.337Z,248.00
2019-05-25T04:00:39.335Z,276.00
2019-05-25T04:01:39.332Z,324.00
2019-05-25T04:02:39.359Z,388.00
2019-05-25T04:03:39.324Z,428.00
2019-05-25T04:04:39.322Z,444.00
2019-05-25T04:05:39.319Z,468.00
2019-05-25T04:06:39.321Z,496.00
2019-05-25T04:07:39.312Z,516.00
2019-05-25T04:08:39.315Z,528.00
2019-05-25T04:09:39.307Z,540.00
2019-05-25T04:10:39.331Z,560.00
2019-05-25T04:11:39.299Z,588.00
2019-05-25T04:12:39.296Z,612.00
2019-05-25T04:13:39.293Z,640.00
2019-05-25T04:14:39.290Z,652.00
2019-05-25T04:15:39.288Z,676.00
2019-05-25T04:16:39.286Z,704.00
2019-05-25T04:17:39.284Z,724.00
2019-05-25T04:18:39.278Z,744.00
2019-05-25T04:19:39.274Z,744.00
2019-05-25T04:20:39.273Z,744.00
2019-05-25T04:21:39.270Z,764.00
2019-05-25T04:22:39.267Z,784.00
2019-05-25T04:23:39.264Z,780.00
2019-05-25T04:24:39.260Z,776.00
2019-05-25T04:25:39.260Z,780.00
2019-05-25T04:26:39.255Z,776.00
2019-05-25T04:27:39.253Z,784.00
2019-05-25T04:28:39.250Z,820.00
2019-05-25T04:29:39.247Z,876.00
2019-05-25T04:30:39.245Z,928.00
2019-05-25T04:31:39.240Z,984.00
2019-05-25T04:32:39.238Z,1036.00
2019-05-25T04:33:39.235Z,1096.00
2019-05-25T04:34:39.233Z,1176.00
2019-05-25T04:35:39.229Z,1264.00
2019-05-25T04:36:39.228Z,1300.00
2019-05-25T04:37:39.223Z,1240.00
2019-05-25T04:38:39.226Z,1172.00
2019-05-25T04:39:39.221Z,1140.00
2019-05-25T04:40:39.216Z,1148.00
2019-05-25T04:41:39.212Z,1256.00
2019-05-25T04:42:39.210Z,1364.00
2019-05-25T04:43:39.209Z,1472.00
2019-05-25T04:44:39.209Z,1604.00
2019-05-25T04:45:39.222Z,1668.00
2019-05-25T04:46:39.203Z,1680.00
2019-05-25T04:47:39.195Z,1732.00
2019-05-25T04:48:39.197Z,1908.00
2019-05-25T04:49:39.192Z,2212.00
2019-05-25T04:50:39.188Z,2388.00
2019-05-25T04:51:39.186Z,2300.00
2019-05-25T04:52:41.458Z,2152.00
2019-05-25T04:53:39.182Z,2080.00
2019-05-25T04:54:39.180Z,2032.00
2019-05-25T04:55:39.175Z,2048.00
2019-05-25T04:56:40.194Z,2152.00
2019-05-25T04:57:39.170Z,2160.00
2019-05-25T04:58:39.176Z,2056.00
2019-05-25T04:59:39.166Z,1952.00
2019-05-25T05:00:39.164Z,1920.00
2019-05-25T05:01:39.162Z,1952.00
2019-05-25T05:02:39.159Z,2000.00
2019-05-25T05:03:39.157Z,2088.00
2019-05-25T05:04:39.156Z,2112.00
2019-05-25T05:05:39.153Z,2044.00
2019-05-25T05:06:39.162Z,2096.00
2019-05-25T05:07:39.148Z,2164.00
2019-05-25T05:08:39.146Z,2192.00
2019-05-25T05:09:39.145Z,2200.00
2019-05-25T05:10:39.140Z,2112.00
2019-05-25T05:11:39.138Z,2168.00
2019-05-25T05:12:39.138Z,2232.00
2019-05-25T05:13:39.133Z,2200.00
2019-05-25T05:14:39.131Z,2200.00
2019-05-25T05:15:39.129Z,2188.00
2019-05-25T05:16:39.127Z,2096.00
2019-05-25T05:17:39.125Z,2044.00
2019-05-25T05:18:39.124Z,2048.00
2019-05-25T05:19:39.122Z,2000.00
2019-05-25T05:20:39.122Z,1976.00
2019-05-25T05:21:39.118Z,1956.00
2019-05-25T05:22:39.117Z,1992.00
2019-05-25T05:23:39.113Z,2136.00
2019-05-25T05:24:39.112Z,2240.00
2019-05-25T05:25:39.109Z,2288.00
2019-05-25T05:26:52.815Z,2364.00
2019-05-25T05:27:39.107Z,2388.00
2019-05-25T05:28:39.104Z,2336.00
2019-05-25T05:29:39.100Z,2236.00
2019-05-25T05:30:39.097Z,2136.00
2019-05-25T05:31:39.097Z,2064.00
2019-05-25T05:32:39.097Z,2036.00
2019-05-25T05:33:39.091Z,2036.00
2019-05-25T05:34:39.089Z,2068.00
2019-05-25T05:35:39.358Z,2152.00
2019-05-25T05:36:39.088Z,2244.00
2019-05-25T05:37:39.084Z,2300.00
2019-05-25T05:38:39.081Z,2268.00
2019-05-25T05:39:39.080Z,2196.00
2019-05-25T05:40:39.079Z,2124.00
2019-05-25T05:41:39.077Z,2116.00
2019-05-25T05:42:39.075Z,2188.00
2019-05-25T05:43:39.073Z,2280.00
2019-05-25T05:44:39.069Z,2440.00
2019-05-25T05:45:39.072Z,2644.00
2019-05-25T05:46:39.066Z,2824.00
2019-05-25T05:47:39.066Z,2948.00
2019-05-25T05:48:39.064Z,3040.00
2019-05-25T05:49:39.072Z,3124.00
2019-05-25T05:50:39.059Z,3248.00
2019-05-25T05:51:39.057Z,3436.00
2019-05-25T05:52:39.075Z,3596.00
2019-05-25T05:53:39.054Z,3744.00
2019-05-25T05:54:39.051Z,3748.00
2019-05-25T05:55:39.052Z,3544.00
2019-05-25T05:56:39.050Z,3480.00
2019-05-25T05:57:39.046Z,3744.00
2019-05-25T05:58:39.045Z,4056.00
2019-05-25T05:59:39.043Z,3952.00
2019-05-25T06:00:39.042Z,3968.00
2019-05-25T06:01:39.040Z,4168.00
2019-05-25T06:02:39.038Z,4652.00
2019-05-25T06:03:39.038Z,5424.00
2019-05-25T06:04:39.036Z,6308.00
2019-05-25T06:05:39.062Z,6784.00
2019-05-25T06:06:39.032Z,6896.00
2019-05-25T06:07:39.034Z,6660.00
2019-05-25T06:08:39.028Z,6268.00
2019-05-25T06:09:39.032Z,5768.00
2019-05-25T06:10:39.025Z,5748.00
2019-05-25T06:11:39.026Z,5988.00
2019-05-25T06:12:39.024Z,6200.00
2019-05-25T06:13:39.022Z,5988.00
2019-05-25T06:14:39.058Z,6000.00
2019-05-25T06:16:28.379Z,6984.00
2019-05-25T06:17:28.376Z,7528.00
2019-05-25T06:18:28.374Z,7272.00
2019-05-25T06:19:28.576Z,6968.00
2019-05-25T06:20:29.182Z,6904.00
2019-05-25T06:21:28.371Z,6696.00
2019-05-25T06:22:28.377Z,6584.00
2019-05-25T06:23:28.368Z,6712.00
2019-05-25T06:24:28.365Z,6992.00
2019-05-25T06:25:28.365Z,7020.00
2019-05-25T06:26:28.362Z,6528.00
2019-05-25T06:27:28.363Z,6268.00
2019-05-25T06:28:28.359Z,6136.00
2019-05-25T06:29:28.359Z,5900.00
2019-05-25T06:30:28.357Z,5784.00
2019-05-25T06:31:28.356Z,6348.00
2019-05-25T06:32:28.355Z,7092.00
2019-05-25T06:33:28.357Z,6840.00
2019-05-25T06:34:28.353Z,6148.00
2019-05-25T06:35:28.401Z,5900.00
2019-05-25T06:36:28.351Z,5820.00
2019-05-25T06:37:28.349Z,5760.00
2019-05-25T06:38:28.348Z,5512.00
2019-05-25T06:39:28.347Z,5008.00
2019-05-25T06:40:28.350Z,4560.00
2019-05-25T06:41:28.345Z,4572.00
2019-05-25T06:42:28.344Z,4980.00
2019-05-25T06:43:28.345Z,5288.00
2019-05-25T06:44:28.341Z,5268.00
2019-05-25T06:45:28.342Z,5220.00
2019-05-25T06:46:28.340Z,5356.00
2019-05-25T06:47:28.342Z,5512.00
2019-05-25T06:48:28.336Z,5528.00
2019-05-25T06:49:28.342Z,5576.00
2019-05-25T06:50:28.337Z,5724.00
2019-05-25T06:51:28.334Z,5820.00
2019-05-25T06:52:28.336Z,5596.00
2019-05-25T06:53:28.332Z,5440.00
2019-05-25T06:54:28.331Z,5596.00
2019-05-25T06:55:28.333Z,5828.00
2019-05-25T06:56:28.329Z,6020.00
2019-05-25T06:57:42.012Z,6308.00
2019-05-25T06:58:28.327Z,6464.00
2019-05-25T06:59:28.325Z,6460.00
2019-05-25T07:00:28.325Z,6824.00
2019-05-25T07:01:28.324Z,7512.00
2019-05-25T07:02:28.323Z,8228.00
2019-05-25T07:03:28.322Z,9012.00
2019-05-25T07:04:28.322Z,9828.00
2019-05-25T07:05:28.321Z,10444.00
2019-05-25T07:06:28.320Z,10624.00
2019-05-25T07:07:28.322Z,10196.00
2019-05-25T07:08:28.319Z,9728.00
2019-05-25T07:09:28.317Z,9820.00
2019-05-25T07:10:28.316Z,9464.00
2019-05-25T07:11:28.318Z,8480.00
2019-05-25T07:12:28.316Z,8012.00
2019-05-25T07:13:28.685Z,9020.00
2019-05-25T07:14:28.315Z,10408.00
2019-05-25T07:15:28.315Z,11304.00
2019-05-25T07:16:28.315Z,12640.00
2019-05-25T07:17:28.315Z,11096.00
2019-05-25T07:18:28.316Z,9528.00
2019-05-25T07:19:28.313Z,10704.00
2019-05-25T07:20:28.313Z,12924.00
2019-05-25T07:21:28.322Z,15764.00
2019-05-25T07:22:28.312Z,14636.00
2019-05-25T07:23:28.314Z,15868.00
2019-05-25T07:24:28.312Z,14060.00
2019-05-25T07:25:28.313Z,10744.00
2019-05-25T07:26:28.316Z,8752.00
2019-05-25T07:27:28.320Z,7416.00
2019-05-25T07:28:28.312Z,7760.00
2019-05-25T07:29:28.314Z,10244.00
2019-05-25T07:30:28.315Z,10028.00
2019-05-25T07:31:28.314Z,10356.00
2019-05-25T07:32:28.314Z,10204.00
2019-05-25T07:33:28.317Z,9332.00
2019-05-25T07:34:28.315Z,9148.00
2019-05-25T07:35:28.317Z,9536.00
2019-05-25T07:36:28.314Z,10952.00
2019-05-25T07:37:28.315Z,12644.00
2019-05-25T07:38:28.315Z,14184.00
2019-05-25T07:39:28.315Z,15712.00
2019-05-25T07:40:28.315Z,24288.00
2019-05-25T07:41:28.322Z,29952.00
2019-05-25T07:42:28.317Z,66496.00
2019-05-25T07:43:28.317Z,70272.00
2019-05-25T07:44:28.316Z,22752.00
2019-05-25T07:45:28.317Z,14332.00
2019-05-25T07:46:28.320Z,13732.00
2019-05-25T07:47:28.321Z,13716.00
2019-05-25T07:48:28.329Z,14700.00
2019-05-25T07:49:28.322Z,14932.00
2019-05-25T07:50:28.326Z,14976.00
2019-05-25T07:51:28.324Z,23168.00
2019-05-25T07:52:28.326Z,13228.00
2019-05-25T07:53:28.329Z,13096.00
2019-05-25T07:54:28.333Z,13940.00
2019-05-25T07:55:28.332Z,23936.00
2019-05-25T07:56:28.334Z,30720.00
2019-05-25T07:57:28.757Z,26240.00
2019-05-25T07:58:28.336Z,13472.00
2019-05-25T07:59:28.341Z,31232.00
2019-05-25T08:00:28.344Z,43904.00
2019-05-25T08:01:28.349Z,37504.00
2019-05-25T08:02:28.346Z,27808.00
2019-05-25T08:03:28.347Z,26720.00
2019-05-25T08:04:28.351Z,71808.00
2019-05-25T08:05:28.354Z,44128.00
2019-05-25T08:06:28.356Z,26720.00
2019-05-25T08:07:28.359Z,22912.00
2019-05-25T08:08:28.361Z,46912.00
2019-05-25T08:09:28.374Z,92800.00
2019-05-25T08:10:28.369Z,95296.00
2019-05-25T08:11:28.374Z,67520.00
2019-05-25T08:12:28.379Z,61696.00
2019-05-25T08:13:28.382Z,24352.00
2019-05-25T08:14:28.388Z,18016.00
2019-05-25T08:15:28.396Z,23232.00
2019-05-25T08:16:28.401Z,56640.00
2019-05-25T08:17:28.402Z,37408.00
2019-05-25T08:18:28.409Z,96736.00
2019-05-25T08:19:28.415Z,22464.00
2019-05-25T08:20:28.421Z,18016.00
2019-05-25T08:21:28.425Z,75968.00
2019-05-25T08:22:28.482Z,51936.00
2019-05-25T08:23:28.439Z,19264.00
2019-05-25T08:24:28.443Z,18400.00
2019-05-25T08:25:28.449Z,46848.00
2019-05-25T08:26:28.520Z,16640.00
2019-05-25T08:27:28.461Z,41568.00
2019-05-25T08:28:32.619Z,21696.00
2019-05-25T08:29:28.473Z,20384.00
2019-05-25T08:30:28.479Z,41280.00
2019-05-25T08:31:28.485Z,17888.00
2019-05-25T08:32:28.493Z,13412.00
2019-05-25T08:33:28.494Z,12712.00
2019-05-25T08:34:28.500Z,12288.00
2019-05-25T08:35:28.507Z,11232.00
2019-05-25T08:36:29.869Z,10488.00
2019-05-25T08:37:28.514Z,10100.00
2019-05-25T08:38:28.521Z,9748.00
2019-05-25T08:39:28.527Z,10476.00
2019-05-25T08:40:28.532Z,12464.00
2019-05-25T08:41:28.536Z,16608.00
2019-05-25T08:42:28.543Z,25024.00
2019-05-25T08:43:28.544Z,39520.00
2019-05-25T08:44:28.550Z,31424.00
2019-05-25T08:45:28.554Z,18240.00
2019-05-25T08:46:28.558Z,15436.00
2019-05-25T08:47:28.565Z,14664.00
2019-05-25T08:48:28.569Z,14928.00
2019-05-25T08:49:28.573Z,14264.00
2019-05-25T08:50:37.869Z,11936.00
2019-05-25T08:51:28.582Z,12528.00
2019-05-25T08:52:28.587Z,27808.00
2019-05-25T08:53:40.537Z,12988.00
2019-05-25T08:54:28.594Z,14016.00
2019-05-25T08:55:28.599Z,42944.00
2019-05-25T08:56:28.603Z,26048.00
2019-05-25T08:57:28.608Z,15940.00
2019-05-25T08:58:28.612Z,35808.00
2019-05-25T08:59:28.618Z,33792.00
2019-05-25T09:00:28.621Z,66784.00
2019-05-25T09:01:28.625Z,73248.00
2019-05-25T09:02:28.631Z,70624.00
2019-05-25T09:03:28.634Z,71744.00
2019-05-25T09:04:28.639Z,77760.00
2019-05-25T09:05:28.643Z,75872.00
2019-05-25T09:06:28.648Z,75776.00
2019-05-25T09:07:28.671Z,22048.00
2019-05-25T09:08:28.674Z,75264.00
2019-05-25T09:09:28.665Z,54080.00
2019-05-25T09:10:28.672Z,70240.00
2019-05-25T09:11:28.678Z,26368.00
2019-05-25T09:12:28.682Z,17056.00
2019-05-25T09:13:28.689Z,16016.00
2019-05-25T09:14:28.697Z,50752.00
2019-05-25T09:15:28.705Z,14628.00
2019-05-25T09:16:28.710Z,12324.00
2019-05-25T09:17:28.719Z,12100.00
2019-05-25T09:18:28.722Z,14516.00
2019-05-25T09:19:28.730Z,47936.00
2019-05-25T09:20:28.739Z,33568.00
2019-05-25T09:21:28.743Z,71616.00
2019-05-25T09:22:28.749Z,68544.00
2019-05-25T09:23:28.757Z,65952.00
2019-05-25T09:24:28.762Z,68320.00
2019-05-25T09:25:28.769Z,69824.00
2019-05-25T09:26:28.777Z,68864.00
2019-05-25T09:27:28.783Z,75136.00
2019-05-25T09:28:28.793Z,78752.00
2019-05-25T09:29:28.796Z,28864.00
2019-05-25T09:30:28.805Z,36928.00
2019-05-25T09:33:12.153Z,15024.00
2019-05-25T09:34:12.365Z,14512.00
2019-05-25T09:35:55.501Z,35200.00
2019-05-25T09:36:58.134Z,19936.00
2019-05-25T09:37:55.518Z,15568.00
2019-05-25T09:39:58.899Z,12832.00
2019-05-25T09:40:59.924Z,12224.00
2019-05-25T09:41:58.918Z,12128.00
2019-05-25T09:42:58.924Z,12700.00
2019-05-25T09:43:58.933Z,11556.00
2019-05-25T09:44:58.970Z,10904.00
2019-05-25T09:45:58.951Z,11108.00
2019-05-25T09:46:58.980Z,11856.00
2019-05-25T09:47:58.964Z,13788.00
2019-05-25T09:48:58.974Z,11844.00
2019-05-25T09:49:58.983Z,11648.00
2019-05-25T09:50:58.984Z,17280.00
2019-05-25T09:51:58.992Z,18304.00
2019-05-25T09:55:35.651Z,11576.00
2019-05-25T09:56:35.657Z,12660.00
2019-05-25T09:57:35.663Z,11560.00
2019-05-25T09:58:35.669Z,11316.00
2019-05-25T09:59:35.675Z,27648.00
2019-05-25T10:00:39.895Z,26752.00
2019-05-25T10:01:35.709Z,26528.00
2019-05-25T10:02:35.692Z,26496.00
2019-05-25T10:03:35.698Z,25856.00
2019-05-25T10:04:35.712Z,26048.00
2019-05-25T10:05:35.708Z,21376.00
2019-05-25T10:06:35.715Z,12940.00
2019-05-25T10:07:35.722Z,14124.00
2019-05-25T10:08:35.730Z,13068.00
2019-05-25T10:09:35.737Z,13164.00
2019-05-25T10:10:35.743Z,14228.00
2019-05-25T10:11:35.749Z,14152.00
2019-05-25T10:12:35.759Z,15884.00
2019-05-25T10:13:35.762Z,16320.00
2019-05-25T10:14:35.769Z,12360.00
2019-05-25T10:15:35.776Z,12224.00
2019-05-25T10:16:35.783Z,23296.00
2019-05-25T10:17:35.788Z,11708.00
2019-05-25T10:18:35.795Z,11120.00
2019-05-25T10:19:35.807Z,11420.00
2019-05-25T10:20:35.808Z,11980.00
2019-05-25T10:21:35.814Z,11944.00
2019-05-25T10:22:35.822Z,11836.00
2019-05-25T10:23:35.827Z,11424.00
2019-05-25T10:24:35.833Z,10432.00
2019-05-25T10:25:35.839Z,9836.00
2019-05-25T10:26:35.846Z,10036.00
2019-05-25T10:27:35.852Z,10676.00
2019-05-25T10:28:35.856Z,12952.00
2019-05-25T10:29:37.439Z,18816.00
2019-05-25T10:30:35.869Z,15044.00
2019-05-25T10:31:35.873Z,14560.00
2019-05-25T10:32:35.881Z,14080.00
2019-05-25T10:33:35.883Z,13704.00
2019-05-25T10:34:35.890Z,13356.00
2019-05-25T10:35:35.895Z,12584.00
2019-05-25T10:36:35.901Z,11404.00
2019-05-25T10:37:35.910Z,10476.00
2019-05-25T10:38:35.911Z,9492.00
2019-05-25T10:39:35.921Z,8460.00
2019-05-25T10:40:35.926Z,7764.00
2019-05-25T10:41:35.926Z,7392.00
2019-05-25T10:42:35.931Z,7288.00
2019-05-25T10:43:36.002Z,7468.00
2019-05-25T10:44:35.944Z,7732.00
2019-05-25T10:45:35.948Z,7988.00
2019-05-25T10:46:35.954Z,7872.00
2019-05-25T10:47:35.954Z,7512.00
2019-05-25T10:48:35.961Z,7028.00
2019-05-25T10:49:35.965Z,6748.00
2019-05-25T10:50:35.976Z,6636.00
2019-05-25T10:51:35.971Z,6760.00
2019-05-25T10:52:35.975Z,7164.00
2019-05-25T10:53:35.979Z,7624.00
2019-05-25T10:54:35.984Z,8236.00
2019-05-25T10:55:35.987Z,9080.00
2019-05-25T10:56:35.990Z,10132.00
2019-05-25T10:57:36.007Z,11292.00
2019-05-25T10:58:35.999Z,12420.00
2019-05-25T10:59:51.648Z,13516.00
2019-05-25T11:00:36.011Z,14188.00
2019-05-25T11:01:36.009Z,14624.00
2019-05-25T11:02:36.015Z,14864.00
2019-05-25T11:03:36.017Z,14852.00
2019-05-25T11:04:36.021Z,13348.00
2019-05-25T11:05:36.023Z,12560.00
2019-05-25T11:06:36.030Z,11808.00
2019-05-25T11:07:36.032Z,12196.00
2019-05-25T11:08:36.036Z,10624.00
2019-05-25T11:09:36.037Z,10372.00
2019-05-25T11:10:36.043Z,10440.00
2019-05-25T11:11:36.047Z,10788.00
2019-05-25T11:12:36.062Z,11404.00
2019-05-25T11:13:36.053Z,11316.00
2019-05-25T11:14:36.057Z,10880.00
2019-05-25T11:15:36.062Z,10676.00
2019-05-25T11:16:36.074Z,10912.00
2019-05-25T11:17:36.073Z,11460.00
2019-05-25T11:18:36.083Z,12240.00
2019-05-25T11:19:36.075Z,13776.00
2019-05-25T11:20:36.079Z,18400.00
2019-05-25T11:21:36.092Z,14524.00
2019-05-25T11:22:36.088Z,14952.00
2019-05-25T11:23:36.089Z,16448.00
2019-05-25T11:24:36.094Z,15824.00
2019-05-25T11:25:36.096Z,16128.00
2019-05-25T11:26:36.101Z,16576.00
2019-05-25T11:27:36.104Z,16256.00
2019-05-25T11:28:36.111Z,13732.00
2019-05-25T11:29:36.112Z,15592.00
2019-05-25T11:30:36.122Z,13028.00
2019-05-25T11:31:36.215Z,12388.00
2019-05-25T11:32:36.126Z,11948.00
2019-05-25T11:33:36.556Z,11592.00
2019-05-25T11:34:36.132Z,11660.00
2019-05-25T11:35:36.164Z,11808.00
2019-05-25T11:36:36.141Z,11592.00
2019-05-25T11:37:36.153Z,11552.00
2019-05-25T11:38:36.150Z,11792.00
2019-05-25T11:39:36.162Z,11876.00
2019-05-25T11:40:36.160Z,11712.00
2019-05-25T11:41:36.161Z,11144.00
2019-05-25T11:42:36.166Z,10700.00
2019-05-25T11:43:36.174Z,10340.00
2019-05-25T11:44:36.180Z,10472.00
2019-05-25T11:45:36.178Z,10780.00
2019-05-25T11:46:36.182Z,10964.00
2019-05-25T11:47:36.189Z,11288.00
2019-05-25T11:48:36.201Z,11444.00
2019-05-25T11:49:36.195Z,11576.00
2019-05-25T11:50:36.198Z,11688.00
2019-05-25T11:51:36.204Z,11988.00
2019-05-25T11:52:36.217Z,12252.00
2019-05-25T11:53:36.209Z,13100.00
2019-05-25T11:54:36.220Z,12588.00
2019-05-25T11:55:36.218Z,11412.00
2019-05-25T11:56:36.223Z,10652.00
2019-05-25T11:57:36.229Z,10028.00
2019-05-25T11:58:47.089Z,9772.00
2019-05-25T11:59:36.233Z,10408.00
2019-05-25T12:00:36.238Z,12808.00
2019-05-25T12:01:36.240Z,13032.00
2019-05-25T12:02:36.244Z,12684.00
2019-05-25T12:03:36.250Z,12748.00
2019-05-25T12:04:36.260Z,10616.00
2019-05-25T12:05:36.257Z,12168.00
2019-05-25T12:06:36.260Z,9472.00
2019-05-25T12:07:36.266Z,11120.00
2019-05-25T12:08:36.268Z,10740.00
2019-05-25T12:09:36.273Z,10272.00
2019-05-25T12:10:36.275Z,10200.00
2019-05-25T12:11:36.281Z,10096.00
2019-05-25T12:12:36.283Z,9636.00
2019-05-25T12:13:36.291Z,9328.00
2019-05-25T12:14:36.295Z,8896.00
2019-05-25T12:15:36.294Z,8456.00
2019-05-25T12:16:36.300Z,7996.00
2019-05-25T12:17:36.303Z,7692.00
2019-05-25T12:18:36.311Z,7500.00
2019-05-25T12:19:36.317Z,7412.00
2019-05-25T12:20:36.314Z,7732.00
2019-05-25T12:21:36.316Z,8888.00
2019-05-25T12:22:36.328Z,9364.00
2019-05-25T12:23:36.330Z,9192.00
2019-05-25T12:24:36.329Z,9172.00
2019-05-25T12:25:36.331Z,9096.00
2019-05-25T12:26:36.336Z,9012.00
2019-05-25T12:27:36.340Z,6084.00